Time;durP1;ratioP1;P1;durP2;ratioP2;P2;SDS_P1;SDS_P2;PMS_P1;PMS_P2;Temp;Humidity;BMP_temperature;BMP_pressure;BME280_temperature;BME280_humidity;BME280_pressure;Samples;Min_cycle;Max_cycle;Signal;HPM_P1;HPM_P2
2020/12/09 00:00:42;;;;;;;34.53;21.48;;;;;;;2.51;73.89;97905.94;5093939;28;20055;-69
2020/12/09 00:03:09;;;;;;;32.33;21.42;;;;;;;2.53;73.67;97899.59;5093908;28;20097;-67
2020/12/09 00:05:37;;;;;;;36.28;23.23;;;;;;;2.54;73.54;97901.19;5095317;28;20040;-68
2020/12/09 00:08:03;;;;;;;33.08;21.42;;;;;;;2.36;73.53;97903.94;5094846;28;20059;-67
2020/12/09 00:10:31;;;;;;;44.33;21.80;;;;;;;2.20;73.95;97898.72;5093820;28;20082;-69
2020/12/09 00:12:58;;;;;;;32.85;21.48;;;;;;;2.18;74.33;97898.91;5093930;28;20044;-68
2020/12/09 00:15:24;;;;;;;36.40;20.15;;;;;;;2.24;74.28;97892.22;5095122;28;20067;-68
2020/12/09 00:17:51;;;;;;;34.50;20.77;;;;;;;2.25;74.13;97898.28;5095151;28;20051;-68
2020/12/09 00:20:18;;;;;;;36.67;22.23;;;;;;;2.27;74.15;97898.91;5095332;28;20040;-68
2020/12/09 00:22:44;;;;;;;36.17;21.77;;;;;;;2.34;74.25;97898.09;5094594;28;20479;-68
2020/12/09 00:25:11;;;;;;;36.13;21.98;;;;;;;2.33;74.20;97901.69;5095638;28;20123;-69
2020/12/09 00:27:39;;;;;;;36.67;21.52;;;;;;;2.30;73.90;97903.81;5095087;28;20051;-68
2020/12/09 00:30:07;;;;;;;34.80;22.98;;;;;;;2.08;73.85;97906.06;5094165;28;20043;-68
2020/12/09 00:32:35;;;;;;;34.22;21.45;;;;;;;2.08;74.46;97907.84;5095304;28;20044;-68
2020/12/09 00:35:03;;;;;;;37.08;23.88;;;;;;;2.10;74.40;97909.31;5093704;28;20040;-69
2020/12/09 00:37:30;;;;;;;35.13;22.35;;;;;;;2.08;74.48;97908.69;5093525;28;20048;-68
2020/12/09 00:39:56;;;;;;;34.15;21.27;;;;;;;2.12;74.40;97912.59;5095092;28;20047;-68
2020/12/09 00:42:23;;;;;;;34.97;21.95;;;;;;;2.18;74.86;97914.53;5094774;28;20123;-69
2020/12/09 00:44:51;;;;;;;33.50;21.98;;;;;;;2.19;74.23;97913.56;5095117;28;20050;-69
2020/12/09 00:47:18;;;;;;;33.30;22.05;;;;;;;2.13;74.43;97919.44;5094929;28;20036;-69
2020/12/09 00:52:30;;;;;;;37.15;22.42;;;;;;;2.16;74.60;97918.28;5094104;28;20048;-70
2020/12/09 00:54:57;;;;;;;35.38;22.40;;;;;;;2.09;74.65;97917.31;5094738;28;20036;-69
2020/12/09 00:57:24;;;;;;;37.13;23.15;;;;;;;2.12;74.56;97927.41;5093103;28;20083;-69
2020/12/09 00:59:52;;;;;;;33.25;21.60;;;;;;;2.12;74.65;97919.56;5095598;28;20043;-69
2020/12/09 01:02:21;;;;;;;35.50;22.70;;;;;;;2.13;74.57;97929.06;5093370;28;20044;-69
2020/12/09 01:04:50;;;;;;;35.42;21.95;;;;;;;2.04;74.25;97936.03;5093658;28;20110;-69
2020/12/09 01:07:17;;;;;;;39.10;22.58;;;;;;;1.86;74.22;97930.13;5094298;28;20611;-69
2020/12/09 01:09:44;;;;;;;37.00;21.92;;;;;;;1.82;75.03;97932.22;5094303;28;20040;-69
2020/12/09 01:12:11;;;;;;;36.05;21.73;;;;;;;1.95;75.33;97932.56;5092934;28;20409;-69
2020/12/09 01:14:37;;;;;;;35.22;21.55;;;;;;;2.07;75.06;97929.69;5094290;28;20051;-69
2020/12/09 01:17:05;;;;;;;35.00;21.65;;;;;;;2.06;74.92;97939.28;5094006;28;20048;-69
2020/12/09 01:19:32;;;;;;;35.13;21.77;;;;;;;2.15;74.80;97938.31;5094065;28;20048;-69
2020/12/09 01:21:59;;;;;;;35.40;21.35;;;;;;;2.15;74.59;97943.53;5094238;28;20494;-69
2020/12/09 01:24:25;;;;;;;35.90;23.13;;;;;;;2.11;74.45;97947.44;5094282;28;20047;-69
2020/12/09 01:26:52;;;;;;;35.47;22.02;;;;;;;2.07;74.40;97958.34;5094094;28;20040;-69
2020/12/09 01:29:19;;;;;;;33.65;21.95;;;;;;;1.93;74.55;97955.41;5092596;28;20052;-69
2020/12/09 01:31:47;;;;;;;33.33;21.60;;;;;;;1.89;74.75;97963.69;5094009;28;20040;-69
2020/12/09 01:34:16;;;;;;;34.85;21.83;;;;;;;1.95;74.71;97965.66;5093786;28;20036;-69
2020/12/09 01:36:42;;;;;;;38.60;21.70;;;;;;;1.89;74.81;97967.09;5092378;28;20048;-69
2020/12/09 01:39:10;;;;;;;35.85;22.27;;;;;;;1.93;74.87;97958.00;5093411;28;20136;-68
2020/12/09 01:41:36;;;;;;;34.85;21.95;;;;;;;1.98;74.64;97958.34;5091819;28;20063;-69
2020/12/09 01:44:03;;;;;;;35.90;21.90;;;;;;;1.97;74.59;97959.31;5092254;28;20051;-70
2020/12/09 01:46:32;;;;;;;34.72;20.90;;;;;;;2.01;74.70;97956.41;5093871;28;20075;-69
2020/12/09 01:49:00;;;;;;;32.47;21.35;;;;;;;1.98;74.65;97963.53;5092054;28;20044;-69
2020/12/09 01:51:29;;;;;;;35.47;20.92;;;;;;;1.98;74.57;97965.34;5093541;28;20047;-69
2020/12/09 01:53:58;;;;;;;36.80;22.67;;;;;;;1.95;74.55;97957.81;5093475;28;20044;-69
2020/12/09 01:56:25;;;;;;;33.55;22.13;;;;;;;1.94;74.52;97959.63;5093356;28;20482;-69
2020/12/09 01:58:54;;;;;;;35.00;22.92;;;;;;;1.91;74.57;97965.16;5093128;28;20037;-69
2020/12/09 02:01:21;;;;;;;34.20;21.50;;;;;;;1.94;74.53;97967.44;5093413;28;20038;-69
2020/12/09 02:03:49;;;;;;;38.30;22.80;;;;;;;1.94;74.36;97958.81;5093225;28;20497;-69
2020/12/09 02:06:17;;;;;;;37.33;23.45;;;;;;;1.89;74.23;97964.50;5093178;28;20075;-69
2020/12/09 02:08:45;;;;;;;35.35;23.27;;;;;;;1.85;74.50;97970.19;5091978;28;20097;-69
2020/12/09 02:11:13;;;;;;;34.80;22.23;;;;;;;1.78;74.47;97969.19;5093780;28;20055;-68
2020/12/09 02:13:44;;;;;;;39.88;24.70;;;;;;;1.73;74.89;97972.25;5092708;28;20051;-68
2020/12/09 02:16:13;;;;;;;37.80;22.63;;;;;;;1.79;74.87;97982.03;5093621;28;20517;-70
2020/12/09 02:18:40;;;;;;;34.60;21.10;;;;;;;1.81;74.85;97977.50;5094213;28;20051;-69
2020/12/09 02:21:07;;;;;;;41.35;22.23;;;;;;;1.86;75.14;97979.63;5095770;28;20048;-69
2020/12/09 02:23:35;;;;;;;37.00;23.27;;;;;;;1.92;74.94;97986.84;5099350;28;20516;-70
2020/12/09 02:26:02;;;;;;;38.13;22.77;;;;;;;1.91;74.90;97991.22;5099379;28;20043;-70
2020/12/09 02:28:29;;;;;;;36.67;22.77;;;;;;;1.99;75.00;97991.25;5094458;28;20040;-69
2020/12/09 02:30:56;;;;;;;34.25;21.60;;;;;;;2.09;74.84;97993.72;5094689;28;20051;-69
2020/12/09 02:33:22;;;;;;;34.88;20.30;;;;;;;2.18;74.64;97992.78;5092592;28;20040;-68
2020/12/09 02:35:49;;;;;;;32.58;20.67;;;;;;;2.20;74.47;97993.44;5093031;28;20123;-69
2020/12/09 02:38:16;;;;;;;34.17;21.40;;;;;;;2.20;74.51;97996.06;5092498;28;20398;-69
2020/12/09 02:40:44;;;;;;;33.17;20.98;;;;;;;2.20;74.07;97993.44;5091541;28;20052;-69
2020/12/09 02:43:11;;;;;;;33.03;21.67;;;;;;;2.11;74.39;97991.75;5092541;28;20040;-68
2020/12/09 02:45:38;;;;;;;35.60;22.23;;;;;;;2.12;74.47;97990.81;5091586;28;20497;-69
2020/12/09 02:48:05;;;;;;;35.33;21.42;;;;;;;2.11;74.32;97988.34;5092365;28;20051;-69
2020/12/09 02:50:32;;;;;;;36.85;22.33;;;;;;;2.11;74.38;97994.38;5092552;28;20040;-69
2020/12/09 02:52:59;;;;;;;35.47;21.65;;;;;;;2.14;74.44;97991.47;5092286;28;20382;-69
2020/12/09 02:55:26;;;;;;;34.78;21.40;;;;;;;2.18;74.31;97994.56;5091880;28;20044;-69
2020/12/09 02:57:53;;;;;;;29.67;20.00;;;;;;;2.18;74.31;97991.97;5092055;28;20040;-69
2020/12/09 03:00:20;;;;;;;34.42;21.27;;;;;;;2.13;74.38;98005.47;5092358;28;20040;-70
2020/12/09 03:02:47;;;;;;;33.08;20.55;;;;;;;2.21;74.37;97999.47;5092502;28;20401;-70
2020/12/09 03:05:15;;;;;;;35.80;21.73;;;;;;;2.17;74.48;98001.56;5092360;28;20043;-69
2020/12/09 03:07:42;;;;;;;33.00;21.58;;;;;;;2.20;74.54;98014.31;5090710;28;20146;-69
2020/12/09 03:10:09;;;;;;;36.20;21.85;;;;;;;2.21;74.46;98008.09;5092001;28;20045;-69
2020/12/09 03:12:35;;;;;;;35.10;20.25;;;;;;;2.23;74.61;98006.16;5092317;28;20051;-69
2020/12/09 03:15:03;;;;;;;35.05;21.92;;;;;;;2.26;74.50;97999.81;5091293;28;20063;-70
2020/12/09 03:17:30;;;;;;;36.47;21.73;;;;;;;2.30;74.54;98003.72;5092173;28;20113;-69
2020/12/09 03:19:57;;;;;;;32.10;21.05;;;;;;;2.27;74.55;98004.03;5092219;28;20395;-69
2020/12/09 03:22:24;;;;;;;35.25;22.45;;;;;;;2.21;74.70;98012.50;5092259;28;20036;-69
2020/12/09 03:24:50;;;;;;;32.50;21.10;;;;;;;2.21;74.74;98013.31;5092037;28;20058;-69
2020/12/09 03:27:17;;;;;;;33.80;21.13;;;;;;;2.22;74.60;98019.34;5091855;28;20052;-70
2020/12/09 03:29:44;;;;;;;37.90;22.45;;;;;;;2.21;74.82;98013.31;5091951;28;20047;-68
2020/12/09 03:32:11;;;;;;;35.67;22.23;;;;;;;2.29;74.85;98020.34;5091948;28;20095;-69
2020/12/09 03:34:38;;;;;;;35.42;23.02;;;;;;;2.36;75.06;98016.13;5091946;28;20040;-69
2020/12/09 03:37:06;;;;;;;34.15;22.10;;;;;;;2.36;74.89;98018.72;5091732;28;20539;-68
2020/12/09 03:39:32;;;;;;;34.70;22.63;;;;;;;2.41;75.09;98021.69;5091766;28;20059;-69
2020/12/09 03:41:59;;;;;;;33.47;21.52;;;;;;;2.44;74.76;98021.34;5090516;28;20044;-69
2020/12/09 03:44:26;;;;;;;32.90;21.83;;;;;;;2.47;74.84;98026.25;5091832;28;20040;-70
2020/12/09 03:46:56;;;;;;;36.15;22.08;;;;;;;2.54;74.64;98036.88;5091666;28;20044;-69
2020/12/09 03:49:24;;;;;;;35.13;21.63;;;;;;;2.54;74.64;98034.25;5090433;28;20484;-69
2020/12/09 03:51:51;;;;;;;37.88;22.17;;;;;;;2.48;74.65;98035.72;5090393;28;20055;-69
2020/12/09 03:54:18;;;;;;;33.70;22.17;;;;;;;2.54;74.59;98043.88;5090578;28;20406;-69
2020/12/09 03:56:44;;;;;;;34.97;22.63;;;;;;;2.55;74.75;98043.72;5090476;28;20071;-69
2020/12/09 03:59:11;;;;;;;33.47;21.20;;;;;;;2.51;74.82;98046.81;5091499;28;20053;-69
2020/12/09 04:01:38;;;;;;;34.55;21.60;;;;;;;2.58;74.82;98045.22;5091761;28;20064;-69
2020/12/09 04:04:05;;;;;;;33.05;21.92;;;;;;;2.61;74.80;98040.47;5091720;28;20044;-69
2020/12/09 04:06:33;;;;;;;34.13;22.05;;;;;;;2.57;74.83;98047.00;5094457;28;20529;-70
2020/12/09 04:09:00;;;;;;;38.60;22.63;;;;;;;2.66;74.76;98045.22;5095187;28;20056;-69
2020/12/09 04:11:27;;;;;;;38.35;22.80;;;;;;;2.71;74.72;98042.94;5095729;28;20429;-69
2020/12/09 04:13:54;;;;;;;33.50;21.20;;;;;;;2.79;74.65;98039.53;5094783;28;20040;-70
2020/12/09 04:16:20;;;;;;;35.05;23.13;;;;;;;2.84;74.42;98040.66;5095175;28;20032;-69
2020/12/09 04:18:47;;;;;;;33.25;21.30;;;;;;;2.82;74.23;98039.22;5095327;28;20040;-69
2020/12/09 04:21:14;;;;;;;36.03;22.45;;;;;;;2.79;74.21;98045.56;5093992;28;20134;-70
2020/12/09 04:23:42;;;;;;;36.63;23.33;;;;;;;2.81;74.14;98046.19;5095189;28;20044;-69
2020/12/09 04:26:08;;;;;;;33.15;22.58;;;;;;;2.82;74.31;98045.25;5093947;28;20047;-69
2020/12/09 04:28:35;;;;;;;34.30;21.70;;;;;;;2.87;74.60;98042.13;5094809;28;20052;-69
2020/12/09 04:31:02;;;;;;;32.13;21.63;;;;;;;2.90;74.26;98040.03;5095104;28;20032;-69
2020/12/09 04:33:30;;;;;;;34.00;22.23;;;;;;;2.94;74.25;98043.94;5094969;28;20055;-69
2020/12/09 04:35:57;;;;;;;36.58;24.73;;;;;;;2.98;74.02;98042.63;5095000;28;20044;-68
2020/12/09 04:38:25;;;;;;;36.28;24.45;;;;;;;2.88;73.50;98043.75;5094563;28;20044;-69
2020/12/09 04:40:52;;;;;;;35.50;23.55;;;;;;;2.74;73.76;98050.44;5094832;28;20490;-69
2020/12/09 04:43:19;;;;;;;37.42;23.58;;;;;;;2.62;74.19;98056.94;5094758;28;20047;-70
2020/12/09 04:45:46;;;;;;;38.40;23.80;;;;;;;2.34;74.79;98059.81;5094829;28;20063;-69
2020/12/09 04:48:15;;;;;;;41.13;24.63;;;;;;;2.35;74.86;98058.84;5094501;28;20039;-69
2020/12/09 04:51:11;;;;;;;36.50;24.38;;;;;;;2.28;75.27;98054.41;5094751;28;20063;-69
2020/12/09 04:53:42;;;;;;;38.55;22.88;;;;;;;2.17;76.04;98061.56;5094630;28;20545;-69
2020/12/09 04:56:10;;;;;;;36.72;23.52;;;;;;;2.22;76.14;98058.47;5094608;28;20044;-69
2020/12/09 04:58:39;;;;;;;51.42;32.38;;;;;;;2.30;76.11;98065.50;5094245;28;20032;-70
2020/12/09 05:01:07;;;;;;;39.67;23.45;;;;;;;2.44;76.17;98064.88;5094594;28;20044;-68
2020/12/09 05:03:41;;;;;;;42.20;24.85;;;;;;;2.61;76.06;98050.06;5094353;28;20055;-69
2020/12/09 05:06:09;;;;;;;37.15;24.92;;;;;;;2.69;75.72;98060.53;5093268;28;20048;-70
2020/12/09 05:08:37;;;;;;;34.20;21.92;;;;;;;2.68;75.45;98056.28;5094216;28;22358;-70
2020/12/09 05:11:07;;;;;;;35.17;22.30;;;;;;;2.63;75.60;98062.00;5094396;28;20042;-69
2020/12/09 05:13:36;;;;;;;36.83;22.25;;;;;;;2.59;75.49;98072.91;5094990;28;20486;-69
2020/12/09 05:16:03;;;;;;;36.70;22.90;;;;;;;2.56;75.46;98083.66;5093038;28;20112;-69
2020/12/09 05:18:39;;;;;;;34.25;23.27;;;;;;;2.67;75.66;98078.97;5093316;28;20120;-68
2020/12/09 05:21:15;;;;;;;37.55;23.65;;;;;;;2.70;75.23;98085.69;5094236;28;20044;-69
2020/12/09 05:23:48;;;;;;;39.17;23.52;;;;;;;2.64;75.01;98092.34;5094053;28;20036;-69
2020/12/09 05:26:21;;;;;;;35.72;23.80;;;;;;;2.55;75.21;98095.09;5094059;28;20127;-69
2020/12/09 05:28:49;;;;;;;40.88;24.88;;;;;;;2.46;75.59;98097.69;5093595;28;20061;-69
2020/12/09 05:31:21;;;;;;;37.70;25.08;;;;;;;2.44;75.99;98111.84;5093780;28;20498;-69
2020/12/09 05:33:48;;;;;;;35.13;24.30;;;;;;;2.46;75.85;98112.50;5093878;28;20044;-69
2020/12/09 05:36:16;;;;;;;38.53;24.38;;;;;;;2.41;76.23;98113.00;5093845;28;20489;-69
2020/12/09 05:38:42;;;;;;;32.00;21.42;;;;;;;2.50;76.28;98113.84;5092123;28;20048;-69
2020/12/09 05:41:11;;;;;;;36.00;23.35;;;;;;;2.66;76.35;98111.28;5093664;28;20056;-69
2020/12/09 05:43:42;;;;;;;38.03;22.92;;;;;;;2.78;76.01;98121.41;5093671;28;20036;-69
2020/12/09 05:46:10;;;;;;;37.28;21.45;;;;;;;2.83;75.57;98122.56;5093627;28;20048;-69
2020/12/09 05:48:38;;;;;;;35.17;22.63;;;;;;;2.86;75.80;98119.66;5091854;28;20051;-69
2020/12/09 05:51:06;;;;;;;30.85;21.85;;;;;;;2.90;75.64;98122.75;5093723;28;20097;-68
2020/12/09 05:53:34;;;;;;;36.40;23.33;;;;;;;2.93;75.57;98127.63;5092351;28;20540;-69
2020/12/09 05:56:12;;;;;;;36.30;22.08;;;;;;;2.94;75.41;98132.72;5093446;28;20050;-68
2020/12/09 05:58:40;;;;;;;39.78;23.05;;;;;;;2.89;75.21;98127.13;5093074;28;20414;-68
2020/12/09 06:01:15;;;;;;;34.42;22.67;;;;;;;2.84;75.27;98132.03;5093303;28;20378;-69
2020/12/09 06:03:44;;;;;;;33.95;22.92;;;;;;;2.84;75.27;98129.41;5093542;28;20040;-68
2020/12/09 06:06:18;;;;;;;37.47;22.70;;;;;;;2.83;75.39;98138.22;5093541;28;20040;-68
2020/12/09 06:08:47;;;;;;;34.42;22.15;;;;;;;2.85;75.45;98133.66;5091720;28;20048;-69
2020/12/09 06:11:16;;;;;;;32.90;21.92;;;;;;;2.82;75.43;98136.59;5091959;28;20036;-69
2020/12/09 06:13:43;;;;;;;32.53;22.00;;;;;;;2.83;75.26;98135.63;5093032;28;20051;-68
2020/12/09 06:16:11;;;;;;;35.05;21.30;;;;;;;2.89;75.07;98128.94;5091802;28;20148;-68
2020/12/09 06:18:42;;;;;;;34.47;22.02;;;;;;;2.89;75.19;98129.75;5092803;28;20035;-68
2020/12/09 06:21:09;;;;;;;35.55;22.83;;;;;;;2.80;75.35;98129.91;5093101;28;20055;-68
2020/12/09 06:23:36;;;;;;;33.70;20.85;;;;;;;2.85;75.25;98130.22;5093073;28;20032;-68
2020/12/09 06:26:05;;;;;;;34.03;22.05;;;;;;;2.89;75.23;98127.13;5092947;28;20485;-68
2020/12/09 06:28:34;;;;;;;37.63;24.15;;;;;;;2.86;75.27;98126.66;5092540;28;20048;-69
2020/12/09 06:31:10;;;;;;;42.10;25.02;;;;;;;2.87;75.32;98129.09;5091860;28;20497;-69
2020/12/09 06:33:39;;;;;;;35.92;22.65;;;;;;;2.85;75.43;98128.44;5093506;28;20382;-68
2020/12/09 06:36:21;;;;;;;38.40;23.67;;;;;;;2.84;75.50;98126.00;5093413;28;20055;-68
2020/12/09 06:39:12;;;;;;;34.80;21.42;;;;;;;2.86;75.63;98130.09;5092935;28;20335;-68
2020/12/09 06:41:41;;;;;;;37.35;23.02;;;;;;;2.90;75.33;98131.41;5092942;28;20044;-68
2020/12/09 06:44:10;;;;;;;33.97;21.75;;;;;;;2.94;75.53;98134.50;5093116;28;20046;-69
2020/12/09 06:46:46;;;;;;;36.10;22.48;;;;;;;2.98;75.40;98144.47;5098329;28;20049;-69
2020/12/09 06:49:33;;;;;;;36.00;21.48;;;;;;;3.05;75.42;98136.78;5103560;28;20063;-69
2020/12/09 06:52:02;;;;;;;33.33;21.63;;;;;;;3.05;75.36;98146.41;5100144;28;20044;-69
2020/12/09 06:54:47;;;;;;;33.22;21.70;;;;;;;3.15;75.20;98136.66;5092229;28;20402;-69
2020/12/09 06:57:16;;;;;;;37.97;22.27;;;;;;;3.14;75.18;98141.06;5092922;28;20109;-68
2020/12/09 06:59:43;;;;;;;39.15;22.23;;;;;;;3.14;75.30;98141.06;5092912;28;20044;-69
2020/12/09 07:02:23;;;;;;;37.42;23.27;;;;;;;3.22;75.31;98145.47;5092887;28;20047;-68
2020/12/09 07:05:10;;;;;;;38.35;22.67;;;;;;;3.27;75.12;98148.44;5092774;28;20066;-68
2020/12/09 07:07:39;;;;;;;43.42;22.98;;;;;;;3.31;75.02;98147.13;5092695;28;20051;-68
2020/12/09 07:10:12;;;;;;;38.72;23.75;;;;;;;3.35;75.03;98147.63;5092566;28;20498;-68
2020/12/09 07:12:38;;;;;;;35.22;21.85;;;;;;;3.36;74.64;98150.06;5091522;28;20048;-70
2020/12/09 07:15:06;;;;;;;33.05;21.10;;;;;;;3.34;74.60;98156.41;5092668;28;20036;-69
2020/12/09 07:17:33;;;;;;;30.25;20.25;;;;;;;3.36;74.52;98157.09;5092777;28;20039;-71
2020/12/09 07:20:04;;;;;;;32.65;20.65;;;;;;;3.33;74.70;98158.22;5092742;28;20055;-69
2020/12/09 07:22:32;;;;;;;29.33;20.08;;;;;;;3.31;74.02;98161.97;5091306;28;20509;-69
2020/12/09 07:24:59;;;;;;;31.27;20.80;;;;;;;3.18;74.25;98178.94;5092505;28;20118;-68
2020/12/09 07:27:28;;;;;;;30.25;19.35;;;;;;;3.16;74.62;98183.50;5092311;28;20044;-69
2020/12/09 07:29:58;;;;;;;32.28;19.90;;;;;;;3.24;74.76;98193.16;5093329;28;20059;-69
2020/12/09 07:32:25;;;;;;;27.45;19.08;;;;;;;3.35;74.39;98197.25;5095143;28;20048;-69
2020/12/09 07:34:54;;;;;;;32.55;20.75;;;;;;;3.34;74.22;98206.06;5094280;28;20046;-68
2020/12/09 07:37:24;;;;;;;31.50;18.85;;;;;;;3.38;74.40;98208.19;5093408;28;20044;-70
2020/12/09 07:39:53;;;;;;;28.23;19.88;;;;;;;3.44;74.28;98209.34;5093106;28;20083;-68
2020/12/09 07:42:22;;;;;;;28.80;18.55;;;;;;;3.50;74.05;98206.06;5102155;28;20074;-69
2020/12/09 07:44:50;;;;;;;32.45;21.05;;;;;;;3.52;73.71;98211.16;5101092;28;20044;-69
2020/12/09 07:47:23;;;;;;;28.98;19.13;;;;;;;3.57;73.69;98219.31;5100138;28;20040;-69
2020/12/09 07:49:52;;;;;;;31.42;19.63;;;;;;;3.59;73.73;98223.41;5100585;28;20401;-69
2020/12/09 07:52:25;;;;;;;29.42;19.45;;;;;;;3.65;73.56;98219.31;5101179;28;20048;-70
2020/12/09 07:54:58;;;;;;;33.58;18.92;;;;;;;3.69;73.51;98220.63;5102834;28;20050;-69
2020/12/09 07:57:30;;;;;;;29.70;19.17;;;;;;;3.67;73.40;98226.03;5102085;28;20532;-69
2020/12/09 07:59:57;;;;;;;35.65;20.85;;;;;;;3.62;72.92;98225.69;5101902;28;20064;-69
2020/12/09 08:02:25;;;;;;;30.00;19.10;;;;;;;3.66;73.06;98223.56;5103320;28;20131;-69
2020/12/09 08:05:08;;;;;;;31.20;20.58;;;;;;;3.56;72.97;98205.44;5103885;28;20044;-70
2020/12/09 08:07:43;;;;;;;40.03;23.25;;;;;;;3.51;73.51;98181.59;5103321;28;20040;-69
2020/12/09 08:10:12;;;;;;;37.90;21.38;;;;;;;3.38;73.86;98191.69;5104617;28;20051;-69
2020/12/09 08:12:41;;;;;;;33.35;21.27;;;;;;;3.32;74.21;98203.63;5107031;28;20048;-69
2020/12/09 08:15:08;;;;;;;36.30;22.40;;;;;;;3.36;74.24;98207.53;5107143;28;20047;-69
2020/12/09 08:17:36;;;;;;;42.17;26.67;;;;;;;3.50;74.38;98197.41;5106492;28;20051;-69
2020/12/09 08:20:06;;;;;;;38.58;24.63;;;;;;;3.48;74.07;98205.44;5105580;28;20505;-69
2020/12/09 08:22:33;;;;;;;34.70;22.95;;;;;;;3.52;73.84;98211.16;5096401;28;20059;-68
2020/12/09 08:25:08;;;;;;;33.65;22.55;;;;;;;3.46;73.45;98218.63;5096242;28;20040;-69
2020/12/09 08:27:43;;;;;;;35.28;22.38;;;;;;;3.41;73.75;98220.94;5095767;28;20036;-69
2020/12/09 08:30:17;;;;;;;33.22;21.10;;;;;;;3.50;74.38;98220.94;5095458;28;20332;-69
2020/12/09 08:33:15;;;;;;;31.42;20.33;;;;;;;3.68;74.07;98219.00;5094231;28;20058;-69
2020/12/09 08:35:45;;;;;;;34.53;21.23;;;;;;;3.83;73.89;98217.34;5093947;28;20047;-69
2020/12/09 08:38:22;;;;;;;33.30;21.75;;;;;;;3.94;73.62;98222.25;5094975;28;20115;-69
2020/12/09 08:40:50;;;;;;;34.67;21.13;;;;;;;4.01;73.18;98224.22;5093870;28;20422;-69
2020/12/09 08:43:19;;;;;;;34.13;19.60;;;;;;;4.04;73.05;98231.72;5095337;28;20040;-69
2020/12/09 08:45:46;;;;;;;33.92;21.42;;;;;;;4.06;72.91;98230.59;5095161;28;20040;-70
2020/12/09 08:48:14;;;;;;;32.67;19.38;;;;;;;4.13;72.80;98236.81;5093705;28;20048;-69
2020/12/09 08:50:41;;;;;;;31.98;20.58;;;;;;;4.14;72.33;98235.00;5095072;28;20420;-69
2020/12/09 08:53:07;;;;;;;31.17;19.92;;;;;;;4.04;72.24;98231.72;5093569;28;20048;-69
2020/12/09 08:55:34;;;;;;;30.80;19.90;;;;;;;4.02;72.14;98234.50;5094637;28;20036;-69
2020/12/09 08:58:01;;;;;;;30.80;19.73;;;;;;;3.96;72.04;98246.47;5093158;28;20524;-69
2020/12/09 09:00:28;;;;;;;28.20;18.10;;;;;;;3.91;72.02;98242.69;5094724;28;20051;-69
2020/12/09 09:02:56;;;;;;;32.25;21.23;;;;;;;3.89;72.11;98248.09;5094582;28;20043;-69
2020/12/09 09:05:23;;;;;;;29.05;19.27;;;;;;;3.87;72.17;98257.06;5094368;28;20039;-68
2020/12/09 09:07:50;;;;;;;29.92;20.45;;;;;;;3.88;72.33;98253.50;5094171;28;20052;-69
2020/12/09 09:10:16;;;;;;;25.95;16.77;;;;;;;3.79;72.31;98255.25;5094541;28;20044;-69
2020/12/09 09:12:43;;;;;;;29.88;19.60;;;;;;;3.85;72.43;98261.66;5094236;28;20063;-69
2020/12/09 09:15:10;;;;;;;32.03;20.75;;;;;;;3.85;72.44;98259.03;5094497;28;20043;-69
2020/12/09 09:17:37;;;;;;;29.77;19.95;;;;;;;3.88;72.66;98262.16;5094131;28;20149;-69
2020/12/09 09:20:04;;;;;;;36.50;23.27;;;;;;;3.92;72.67;98268.69;5094279;28;20047;-69
2020/12/09 09:22:31;;;;;;;33.42;21.55;;;;;;;3.95;72.54;98268.34;5094158;28;20486;-69
2020/12/09 09:24:58;;;;;;;30.63;19.98;;;;;;;3.97;72.57;98263.78;5094025;28;20040;-69
2020/12/09 09:27:25;;;;;;;31.48;20.52;;;;;;;4.05;72.53;98267.38;5092332;28;20044;-68
2020/12/09 09:29:53;;;;;;;33.45;19.77;;;;;;;4.16;72.41;98264.41;5092665;28;20048;-68
2020/12/09 09:32:20;;;;;;;29.17;18.38;;;;;;;4.30;72.13;98260.31;5093910;28;20043;-68
2020/12/09 09:34:48;;;;;;;30.88;19.65;;;;;;;4.34;71.43;98269.47;5092603;28;20040;-68
2020/12/09 09:37:14;;;;;;;33.45;20.95;;;;;;;4.30;71.07;98262.94;5092230;28;20032;-68
2020/12/09 09:39:43;;;;;;;34.47;20.30;;;;;;;4.18;71.29;98265.88;5092391;28;20044;-68
2020/12/09 09:42:10;;;;;;;29.70;19.60;;;;;;;4.22;71.77;98266.38;5093581;28;20386;-68
2020/12/09 09:44:37;;;;;;;32.03;19.88;;;;;;;4.28;71.78;98267.50;5092355;28;20054;-69
2020/12/09 09:47:04;;;;;;;30.80;19.77;;;;;;;4.40;71.87;98267.00;5091896;28;20059;-68
2020/12/09 09:49:31;;;;;;;30.15;19.98;;;;;;;4.49;71.46;98259.97;5093391;28;20038;-68
2020/12/09 09:51:58;;;;;;;30.75;18.50;;;;;;;4.50;70.88;98264.22;5093502;28;20042;-69
2020/12/09 09:54:29;;;;;;;27.58;18.20;;;;;;;4.36;70.70;98270.94;5092355;28;20040;-69
2020/12/09 09:56:55;;;;;;;25.13;16.92;;;;;;;4.32;71.28;98268.81;5093123;28;20040;-69
2020/12/09 09:59:23;;;;;;;35.05;20.08;;;;;;;4.43;71.64;98253.59;5092140;28;20054;-69
2020/12/09 10:01:50;;;;;;;31.48;19.08;;;;;;;4.58;71.27;98266.00;5093365;28;20040;-69
2020/12/09 10:04:17;;;;;;;26.25;17.08;;;;;;;4.67;71.03;98262.38;5092742;28;20049;-69
2020/12/09 10:06:44;;;;;;;30.80;19.08;;;;;;;4.74;70.56;98255.47;5093113;28;20130;-69
2020/12/09 10:09:12;;;;;;;25.80;18.65;;;;;;;4.75;70.49;98258.91;5093226;28;20405;-69
2020/12/09 10:11:40;;;;;;;27.30;18.50;;;;;;;4.72;70.45;98254.81;5093043;28;20040;-69
2020/12/09 10:14:07;;;;;;;29.58;19.83;;;;;;;4.70;69.88;98251.56;5093118;28;20047;-67
2020/12/09 10:16:35;;;;;;;30.25;19.08;;;;;;;4.58;70.05;98252.91;5092982;28;20051;-67
2020/12/09 10:19:03;;;;;;;27.00;18.20;;;;;;;4.56;70.38;98249.63;5092964;28;20462;-68
2020/12/09 10:21:31;;;;;;;28.25;18.25;;;;;;;4.63;70.14;98242.75;5092873;28;20047;-68
2020/12/09 10:23:59;;;;;;;27.90;18.60;;;;;;;4.68;70.55;98246.47;5093200;28;20401;-68
2020/12/09 10:26:28;;;;;;;31.83;20.02;;;;;;;4.71;70.53;98245.34;5092920;28;20036;-68
2020/12/09 10:28:55;;;;;;;28.70;18.75;;;;;;;4.74;70.04;98234.53;5092512;28;20040;-69
2020/12/09 10:31:22;;;;;;;28.58;18.65;;;;;;;4.73;70.27;98230.25;5092740;28;20047;-68
2020/12/09 10:33:50;;;;;;;28.92;19.35;;;;;;;4.74;70.25;98226.69;5092650;28;20047;-68
2020/12/09 10:36:21;;;;;;;35.70;22.52;;;;;;;4.70;70.11;98235.88;5092807;28;20555;-68
2020/12/09 10:38:48;;;;;;;35.10;24.10;;;;;;;4.67;70.45;98238.81;5092869;28;20040;-68
2020/12/09 10:41:15;;;;;;;37.38;24.98;;;;;;;4.60;70.53;98240.47;5092882;28;20051;-69
2020/12/09 10:43:42;;;;;;;38.95;24.58;;;;;;;4.69;70.62;98239.44;5092643;28;20109;-68
2020/12/09 10:46:09;;;;;;;35.55;23.13;;;;;;;4.74;70.47;98238.97;5093250;28;20046;-68
2020/12/09 10:48:36;;;;;;;34.65;22.58;;;;;;;4.76;70.63;98240.41;5090689;28;20058;-68
2020/12/09 10:51:04;;;;;;;35.00;23.35;;;;;;;4.76;70.66;98237.78;5091262;28;20043;-68
2020/12/09 10:53:31;;;;;;;41.50;27.05;;;;;;;4.71;70.47;98232.25;5092359;28;20040;-68
2020/12/09 10:55:59;;;;;;;35.28;22.95;;;;;;;4.57;70.28;98231.16;5092325;28;20043;-68
2020/12/09 10:58:27;;;;;;;35.05;24.35;;;;;;;4.58;70.65;98224.94;5092011;28;20409;-68
2020/12/09 11:00:56;;;;;;;36.22;21.70;;;;;;;4.53;70.78;98229.03;5092265;28;20040;-68
2020/12/09 11:03:23;;;;;;;37.30;21.83;;;;;;;4.46;70.82;98236.75;5092237;28;20040;-68
2020/12/09 11:05:50;;;;;;;35.22;22.50;;;;;;;4.46;71.32;98219.25;5092489;28;20036;-68
2020/12/09 11:08:17;;;;;;;35.67;22.55;;;;;;;4.49;71.26;98220.72;5090928;28;20040;-68
2020/12/09 11:10:44;;;;;;;35.05;22.83;;;;;;;4.56;71.17;98220.84;5092307;28;20058;-68
2020/12/09 11:13:11;;;;;;;33.22;22.45;;;;;;;4.49;71.53;98218.09;5092507;28;20044;-68
2020/12/09 11:15:38;;;;;;;34.90;23.35;;;;;;;4.37;71.73;98217.63;5090222;28;20089;-68
2020/12/09 11:18:05;;;;;;;32.40;21.60;;;;;;;4.35;72.02;98213.53;5101254;28;20048;-68
2020/12/09 11:20:33;;;;;;;33.05;22.10;;;;;;;4.27;72.48;98214.38;5104256;28;20040;-68
2020/12/09 11:23:01;;;;;;;32.90;20.35;;;;;;;4.17;72.64;98213.75;5099749;28;20101;-69
2020/12/09 11:25:27;;;;;;;31.95;20.15;;;;;;;4.17;73.13;98216.38;5092263;28;20040;-68
2020/12/09 11:27:54;;;;;;;31.25;20.40;;;;;;;4.25;73.23;98213.72;5091733;28;20111;-68
2020/12/09 11:30:21;;;;;;;33.17;20.85;;;;;;;4.27;73.13;98213.56;5092159;28;20126;-68
2020/12/09 11:32:47;;;;;;;31.35;20.45;;;;;;;4.27;73.16;98208.31;5090872;28;20048;-68